createdAt,value
2022-09-20T00:01:32.669Z,11.10
2022-09-20T00:04:41.296Z,11.10
2022-09-20T00:07:50.038Z,11.10
2022-09-20T00:11:02.787Z,11.20
2022-09-20T00:14:13.664Z,11.10
2022-09-20T00:17:22.087Z,11.10
2022-09-20T00:20:30.525Z,11.10
2022-09-20T00:23:38.923Z,11.20
2022-09-20T00:26:47.419Z,11.20
2022-09-20T00:29:57.330Z,11.20
2022-09-20T00:33:05.843Z,11.30
2022-09-20T00:36:13.287Z,11.20
2022-09-20T00:39:21.817Z,11.20
2022-09-20T00:42:31.887Z,11.10
2022-09-20T00:45:43.744Z,11.10
2022-09-20T00:48:56.736Z,11.00
2022-09-20T00:52:05.527Z,10.90
2022-09-20T00:55:15.464Z,10.90
2022-09-20T00:58:26.433Z,11.00
2022-09-20T01:01:37.728Z,11.00
2022-09-20T01:04:48.140Z,11.10
2022-09-20T01:07:58.070Z,11.00
2022-09-20T01:11:06.892Z,11.10
2022-09-20T01:14:18.966Z,11.10
2022-09-20T01:17:32.709Z,11.10
2022-09-20T01:20:43.915Z,11.10
2022-09-20T01:24:00.205Z,11.10
2022-09-20T01:27:18.543Z,11.00
2022-09-20T01:30:37.962Z,11.00
2022-09-20T01:33:49.138Z,10.90
2022-09-20T01:37:07.690Z,10.90
2022-09-20T01:40:24.531Z,10.90
2022-09-20T01:43:37.937Z,10.90
2022-09-20T01:46:54.113Z,10.90
2022-09-20T01:50:14.290Z,10.80
2022-09-20T01:53:49.818Z,10.70
2022-09-20T01:57:30.446Z,10.70
2022-09-20T02:00:55.173Z,10.60
2022-09-20T02:04:38.274Z,10.50
2022-09-20T02:08:29.846Z,10.40
2022-09-20T02:12:07.328Z,10.30
2022-09-20T02:15:29.670Z,10.30
2022-09-20T02:18:49.782Z,10.40
2022-09-20T02:22:17.003Z,10.40
2022-09-20T02:25:52.969Z,10.30
2022-09-20T02:29:07.674Z,10.20
2022-09-20T02:32:34.560Z,10.00
2022-09-20T02:35:56.514Z,10.00
2022-09-20T02:39:12.489Z,9.90
2022-09-20T02:42:26.961Z,9.80
2022-09-20T02:45:40.598Z,9.80
2022-09-20T02:48:57.102Z,9.70
2022-09-20T02:52:14.637Z,9.70
2022-09-20T02:55:37.042Z,9.70
2022-09-20T02:58:54.714Z,9.70
2022-09-20T03:02:14.901Z,9.70
2022-09-20T03:05:28.928Z,9.70
2022-09-20T03:08:44.446Z,9.70
2022-09-20T03:12:02.908Z,9.70
2022-09-20T03:15:24.255Z,9.70
2022-09-20T03:18:43.431Z,9.70
2022-09-20T03:22:03.312Z,9.60
2022-09-20T03:25:35.756Z,9.60
2022-09-20T03:28:56.395Z,9.50
2022-09-20T03:32:23.908Z,9.50
2022-09-20T03:35:51.735Z,9.50
2022-09-20T03:39:20.986Z,9.50
2022-09-20T03:42:31.134Z,9.50
2022-09-20T03:45:57.238Z,9.50
2022-09-20T03:49:37.591Z,9.50
2022-09-20T03:53:02.858Z,9.50
2022-09-20T03:56:34.969Z,9.50
2022-09-20T04:00:09.190Z,9.40
2022-09-20T04:03:50.037Z,9.30
2022-09-20T04:07:16.970Z,9.20
2022-09-20T04:10:34.874Z,9.20
2022-09-20T04:13:51.902Z,9.10
2022-09-20T04:17:12.679Z,9.10
2022-09-20T04:20:30.179Z,9.10
2022-09-20T04:23:50.068Z,9.10
2022-09-20T04:27:02.028Z,9.10
2022-09-20T04:30:19.488Z,9.00
2022-09-20T04:33:33.103Z,9.00
2022-09-20T04:36:58.036Z,9.00
2022-09-20T04:40:16.354Z,9.00
2022-09-20T04:43:57.603Z,9.00
2022-09-20T04:47:57.682Z,8.90
2022-09-20T04:51:51.336Z,8.80
2022-09-20T04:55:53.829Z,8.90
2022-09-20T04:59:08.241Z,8.90
2022-09-20T05:02:43.867Z,8.80
2022-09-20T05:06:19.101Z,8.80
2022-09-20T05:10:06.664Z,8.80
2022-09-20T05:13:25.187Z,8.90
2022-09-20T05:16:53.016Z,8.80
2022-09-20T05:20:35.232Z,8.80
2022-09-20T05:24:06.708Z,8.80
2022-09-20T05:27:34.737Z,8.80
2022-09-20T05:30:47.314Z,8.90
2022-09-20T05:34:05.846Z,9.00
2022-09-20T05:37:36.859Z,9.00
2022-09-20T05:41:03.129Z,9.00
2022-09-20T05:44:21.244Z,9.10
2022-09-20T05:47:37.943Z,9.10
2022-09-20T05:50:55.773Z,9.20
2022-09-20T05:54:45.113Z,9.30
2022-09-20T05:58:12.569Z,9.50
2022-09-20T06:01:27.079Z,10.00
2022-09-20T06:04:44.332Z,12.30
2022-09-20T06:08:19.528Z,11.80
2022-09-20T06:11:48.105Z,14.10
2022-09-20T06:15:04.942Z,16.60
2022-09-20T06:18:27.066Z,18.80
2022-09-20T06:21:46.791Z,21.10
2022-09-20T06:25:02.789Z,22.30
2022-09-20T06:28:17.536Z,22.90
2022-09-20T06:31:26.045Z,24.00
2022-09-20T06:34:35.206Z,24.20
2022-09-20T06:38:09.961Z,25.10
2022-09-20T06:41:29.965Z,25.70
2022-09-20T06:44:43.289Z,25.90
2022-09-20T06:47:51.782Z,26.50
2022-09-20T06:51:01.185Z,27.40
2022-09-20T06:54:14.873Z,28.20
2022-09-20T06:57:30.618Z,28.00
2022-09-20T07:00:39.752Z,28.10
2022-09-20T07:03:48.282Z,28.40
2022-09-20T07:07:03.260Z,28.40
2022-09-20T07:10:14.734Z,28.80
2022-09-20T07:13:25.298Z,29.40
2022-09-20T07:16:34.464Z,29.10
2022-09-20T07:19:42.878Z,29.50
2022-09-20T07:22:51.672Z,29.90
2022-09-20T07:26:00.734Z,30.10
2022-09-20T07:29:11.162Z,30.70
2022-09-20T07:32:19.568Z,30.30
2022-09-20T07:35:28.458Z,30.40
2022-09-20T07:38:36.842Z,30.70
2022-09-20T07:41:48.650Z,31.40
2022-09-20T07:44:58.885Z,31.60
2022-09-20T07:48:09.047Z,31.90
2022-09-20T07:51:17.628Z,32.30
2022-09-20T07:54:27.734Z,32.30
2022-09-20T07:57:38.397Z,32.00
2022-09-20T08:00:53.584Z,32.60
2022-09-20T08:04:02.226Z,32.40
2022-09-20T08:07:10.633Z,33.30
2022-09-20T08:10:19.107Z,33.40
2022-09-20T08:16:59.826Z,33.00
2022-09-20T08:20:09.581Z,32.50
2022-09-20T08:23:23.834Z,31.10
2022-09-20T08:26:32.702Z,29.90
2022-09-20T08:29:41.823Z,29.50
2022-09-20T08:32:51.847Z,29.30
2022-09-20T08:36:00.479Z,28.10
2022-09-20T08:42:43.827Z,28.30
2022-09-20T08:45:53.092Z,27.40
2022-09-20T08:49:10.866Z,27.60
2022-09-20T08:52:22.809Z,27.40
2022-09-20T08:55:36.410Z,26.80
2022-09-20T08:58:46.446Z,26.90
2022-09-20T09:01:55.239Z,27.10
2022-09-20T09:05:31.576Z,26.50
2022-09-20T09:08:40.575Z,26.20
2022-09-20T09:11:49.283Z,25.90
2022-09-20T09:15:01.220Z,25.80
2022-09-20T09:18:12.621Z,25.60
2022-09-20T09:21:24.657Z,25.70
2022-09-20T09:24:33.334Z,26.00
2022-09-20T09:27:52.485Z,25.80
2022-09-20T09:31:16.001Z,26.00
2022-09-20T09:34:27.174Z,26.20
2022-09-20T09:37:37.003Z,26.00
2022-09-20T09:40:52.585Z,25.60
2022-09-20T09:44:02.399Z,25.30
2022-09-20T09:47:27.622Z,24.90
2022-09-20T09:50:36.192Z,25.10
2022-09-20T09:53:47.318Z,24.60
2022-09-20T09:57:08.813Z,24.30
2022-09-20T10:00:22.222Z,24.20
2022-09-20T10:03:41.843Z,23.50
2022-09-20T10:06:55.614Z,23.20
2022-09-20T10:10:17.333Z,23.40
2022-09-20T10:13:38.256Z,22.90
2022-09-20T10:17:06.878Z,22.80
2022-09-20T10:20:33.695Z,22.90
2022-09-20T10:24:08.826Z,22.80
2022-09-20T10:27:31.759Z,22.80
2022-09-20T10:30:49.527Z,22.70
2022-09-20T10:34:18.228Z,22.30
2022-09-20T10:37:35.237Z,22.40
2022-09-20T10:41:24.033Z,22.30
2022-09-20T10:44:56.691Z,22.30
2022-09-20T10:48:08.297Z,22.10
2022-09-20T10:51:26.031Z,22.10
2022-09-20T10:54:49.581Z,22.10
2022-09-20T10:58:32.665Z,22.00
2022-09-20T11:01:54.488Z,21.60
2022-09-20T11:05:18.737Z,21.40
2022-09-20T11:08:33.486Z,21.30
2022-09-20T11:11:44.887Z,21.50
2022-09-20T11:14:58.482Z,21.00
2022-09-20T11:18:14.003Z,20.50
2022-09-20T11:21:28.292Z,20.70
2022-09-20T11:24:40.401Z,20.30
2022-09-20T11:27:54.456Z,20.00
2022-09-20T11:31:08.718Z,20.30
2022-09-20T11:34:23.961Z,20.60
2022-09-20T11:37:36.749Z,20.70
2022-09-20T11:40:51.720Z,20.30
2022-09-20T11:44:07.055Z,20.30
2022-09-20T11:47:42.945Z,20.20
2022-09-20T11:51:26.882Z,19.90
2022-09-20T11:54:57.146Z,19.90
2022-09-20T11:58:08.367Z,19.90
2022-09-20T12:01:28.456Z,19.50
2022-09-20T12:04:38.209Z,19.10
2022-09-20T12:07:49.237Z,19.00
2022-09-20T12:11:02.524Z,19.00
2022-09-20T12:14:21.184Z,19.20
2022-09-20T12:18:12.497Z,19.10
2022-09-20T12:21:21.910Z,18.90
2022-09-20T12:24:33.428Z,18.70
2022-09-20T12:27:57.978Z,18.40
2022-09-20T12:31:41.802Z,18.40
2022-09-20T12:34:50.243Z,18.60
2022-09-20T12:37:58.713Z,18.80
2022-09-20T12:41:12.992Z,18.60
2022-09-20T12:44:29.324Z,18.50
2022-09-20T12:47:39.254Z,18.50
2022-09-20T12:51:20.788Z,18.40
2022-09-20T12:54:30.055Z,18.40
2022-09-20T12:57:40.940Z,18.40
2022-09-20T13:00:51.992Z,18.00
2022-09-20T13:04:48.923Z,18.10
2022-09-20T13:08:01.995Z,17.90
2022-09-20T13:11:17.507Z,17.80
2022-09-20T13:14:29.866Z,17.80
2022-09-20T13:17:38.822Z,17.80
2022-09-20T13:20:47.612Z,17.70
2022-09-20T13:23:57.609Z,17.80
2022-09-20T13:27:10.724Z,17.90
2022-09-20T13:30:22.689Z,17.90
2022-09-20T13:33:31.136Z,17.90
2022-09-20T13:36:39.972Z,17.70
2022-09-20T13:39:53.773Z,17.70
2022-09-20T13:43:23.122Z,17.60
2022-09-20T13:46:34.884Z,17.40
2022-09-20T13:49:44.730Z,17.30
2022-09-20T13:52:55.460Z,17.30
2022-09-20T13:56:12.670Z,17.40
2022-09-20T13:59:22.415Z,17.40
2022-09-20T14:02:34.593Z,17.50
2022-09-20T14:05:48.587Z,17.40
2022-09-20T14:08:58.652Z,17.40
2022-09-20T14:12:08.392Z,17.40
2022-09-20T14:15:17.104Z,17.20
2022-09-20T14:18:27.758Z,17.10
2022-09-20T14:21:38.425Z,16.90
2022-09-20T14:24:59.528Z,16.80
2022-09-20T14:28:19.848Z,16.70
2022-09-20T14:31:31.297Z,16.80
2022-09-20T14:34:42.488Z,16.90
2022-09-20T14:37:53.451Z,17.00
2022-09-20T14:41:02.388Z,17.10
2022-09-20T14:44:24.502Z,17.10
2022-09-20T14:47:39.188Z,17.00
2022-09-20T14:51:23.437Z,17.00
2022-09-20T14:54:34.046Z,17.00
2022-09-20T14:57:43.606Z,16.60
2022-09-20T15:00:54.569Z,16.60
2022-09-20T15:04:09.819Z,16.60
2022-09-20T15:07:20.136Z,16.50
2022-09-20T15:10:29.628Z,16.40
2022-09-20T15:13:38.038Z,16.50
2022-09-20T15:16:46.863Z,16.30
2022-09-20T15:19:55.511Z,16.30
2022-09-20T15:23:05.715Z,16.30
2022-09-20T15:26:15.397Z,16.30
2022-09-20T15:29:23.768Z,16.30
2022-09-20T15:32:32.646Z,16.30
2022-09-20T15:35:41.848Z,16.40
2022-09-20T15:38:54.906Z,16.50
2022-09-20T15:42:04.026Z,16.60
2022-09-20T15:45:13.459Z,16.60
2022-09-20T15:48:24.240Z,16.70
2022-09-20T15:51:32.887Z,16.70
2022-09-20T15:54:43.396Z,16.60
2022-09-20T15:57:52.173Z,16.50
2022-09-20T16:01:05.273Z,16.30
2022-09-20T16:04:15.444Z,16.30
2022-09-20T16:07:26.712Z,16.20
2022-09-20T16:10:38.469Z,16.10
2022-09-20T16:13:47.416Z,16.00
2022-09-20T16:16:58.791Z,15.80
2022-09-20T16:20:07.174Z,15.80
2022-09-20T16:23:15.769Z,15.70
2022-09-20T16:26:27.304Z,15.70
2022-09-20T16:29:36.091Z,15.70
2022-09-20T16:32:44.489Z,15.60
2022-09-20T16:35:53.206Z,15.60
2022-09-20T16:39:01.602Z,15.50
2022-09-20T16:42:13.299Z,15.40
2022-09-20T16:45:23.287Z,15.30
2022-09-20T16:48:32.259Z,15.30
2022-09-20T16:51:42.200Z,15.20
2022-09-20T16:54:56.026Z,15.10
2022-09-20T16:58:12.156Z,15.00
2022-09-20T17:01:23.457Z,15.00
2022-09-20T17:04:33.567Z,14.90
2022-09-20T17:07:43.057Z,14.80
2022-09-20T17:10:51.925Z,14.70
2022-09-20T17:14:02.075Z,14.60
2022-09-20T17:17:12.140Z,14.60
2022-09-20T17:20:20.637Z,14.50
2022-09-20T17:23:31.919Z,14.40
2022-09-20T17:26:42.019Z,14.30
2022-09-20T17:29:52.376Z,14.20
2022-09-20T17:33:00.819Z,14.20
2022-09-20T17:36:11.625Z,14.10
2022-09-20T17:39:21.209Z,14.00
2022-09-20T17:42:31.306Z,13.90
2022-09-20T17:45:41.192Z,13.80
2022-09-20T17:48:52.025Z,13.80
2022-09-20T17:52:01.781Z,13.70
2022-09-20T17:55:11.131Z,13.70
2022-09-20T17:58:19.849Z,13.60
2022-09-20T18:01:32.235Z,13.60
2022-09-20T18:04:42.519Z,13.40
2022-09-20T18:07:53.632Z,13.40
2022-09-20T18:11:02.276Z,13.30
2022-09-20T18:14:11.411Z,13.30
2022-09-20T18:17:22.572Z,13.20
2022-09-20T18:20:31.060Z,13.20
2022-09-20T18:23:39.675Z,13.10
2022-09-20T18:26:48.343Z,13.00
2022-09-20T18:29:56.798Z,12.90
2022-09-20T18:33:08.525Z,12.70
2022-09-20T18:36:18.522Z,12.70
2022-09-20T18:39:28.840Z,12.60
2022-09-20T18:42:37.404Z,12.50
2022-09-20T18:45:53.357Z,12.50
2022-09-20T18:49:05.195Z,12.50
2022-09-20T18:52:18.081Z,12.40
2022-09-20T18:55:26.855Z,12.40
2022-09-20T18:58:36.642Z,12.30
2022-09-20T19:02:08.483Z,12.30
2022-09-20T19:05:26.444Z,12.10
2022-09-20T19:08:42.169Z,12.00
2022-09-20T19:11:58.594Z,11.90
2022-09-20T19:15:40.166Z,11.90
2022-09-20T19:19:15.929Z,11.80
2022-09-20T19:22:36.054Z,11.70
2022-09-20T19:25:48.420Z,11.60
2022-09-20T19:28:59.529Z,11.50
2022-09-20T19:32:16.526Z,11.30
2022-09-20T19:35:31.009Z,11.20
2022-09-20T19:38:48.619Z,10.90
2022-09-20T19:42:07.101Z,11.00
2022-09-20T19:45:25.770Z,11.00
2022-09-20T19:48:39.659Z,11.00
2022-09-20T19:51:48.273Z,11.00
2022-09-20T19:54:58.577Z,10.90
2022-09-20T19:58:07.510Z,10.80
2022-09-20T20:01:16.518Z,10.70
2022-09-20T20:04:25.528Z,10.60
2022-09-20T20:07:40.716Z,10.50
2022-09-20T20:11:01.773Z,10.50
2022-09-20T20:14:20.002Z,10.50
2022-09-20T20:17:45.272Z,10.40
2022-09-20T20:20:56.645Z,10.30
2022-09-20T20:24:15.453Z,10.20
2022-09-20T20:27:28.390Z,10.10
2022-09-20T20:30:37.292Z,10.10
2022-09-20T20:33:45.750Z,10.00
2022-09-20T20:37:01.000Z,10.00
2022-09-20T20:40:15.096Z,9.90
2022-09-20T20:43:25.038Z,9.90
2022-09-20T20:46:35.996Z,9.90
2022-09-20T20:49:44.515Z,9.90
2022-09-20T20:52:54.215Z,9.70
2022-09-20T20:56:08.270Z,9.60
2022-09-20T20:59:18.196Z,9.50
2022-09-20T21:02:26.643Z,9.50
2022-09-20T21:05:35.059Z,9.40
2022-09-20T21:08:48.889Z,9.50
2022-09-20T21:11:57.894Z,9.20
2022-09-20T21:15:08.543Z,9.00
2022-09-20T21:18:16.924Z,9.00
2022-09-20T21:21:27.008Z,9.00
2022-09-20T21:24:35.391Z,8.90
2022-09-20T21:27:43.866Z,8.70
2022-09-20T21:31:00.491Z,8.60
2022-09-20T21:34:14.088Z,8.70
2022-09-20T21:37:22.498Z,8.80
2022-09-20T21:40:30.965Z,8.80
2022-09-20T21:43:41.872Z,8.60
2022-09-20T21:46:51.704Z,8.40
2022-09-20T21:50:00.284Z,8.30
2022-09-20T21:53:08.652Z,8.30
2022-09-20T21:56:18.232Z,8.30
2022-09-20T21:59:26.999Z,8.40
2022-09-20T22:02:36.790Z,8.40
2022-09-20T22:05:45.204Z,8.40
2022-09-20T22:08:56.685Z,8.30
2022-09-20T22:12:05.409Z,8.30
2022-09-20T22:15:13.848Z,8.30
2022-09-20T22:21:52.956Z,8.20
2022-09-20T22:25:01.183Z,8.20
2022-09-20T22:28:09.421Z,8.20
2022-09-20T22:31:20.360Z,8.20
2022-09-20T22:34:28.639Z,8.10
2022-09-20T22:37:38.229Z,8.10
2022-09-20T22:40:56.508Z,8.00
2022-09-20T22:44:04.975Z,7.90
2022-09-20T22:47:13.156Z,7.90
2022-09-20T22:50:21.478Z,7.90
2022-09-20T22:53:32.718Z,7.80
2022-09-20T22:56:42.411Z,7.80
2022-09-20T22:59:50.723Z,7.80
2022-09-20T23:02:59.782Z,7.60
2022-09-20T23:06:14.051Z,7.50
2022-09-20T23:09:25.664Z,7.50
2022-09-20T23:12:33.892Z,7.60
2022-09-20T23:15:42.164Z,7.40
2022-09-20T23:18:51.575Z,7.30
2022-09-20T23:21:59.804Z,7.30
2022-09-20T23:25:11.261Z,7.30
2022-09-20T23:28:19.538Z,7.30
2022-09-20T23:31:29.084Z,7.30
2022-09-20T23:34:37.293Z,7.30
2022-09-20T23:37:45.625Z,7.10
2022-09-20T23:40:55.282Z,6.90
2022-09-20T23:44:04.837Z,7.00
2022-09-20T23:47:13.126Z,7.10
2022-09-20T23:50:21.341Z,7.00
2022-09-20T23:53:29.687Z,7.00
2022-09-20T23:56:40.270Z,7.00
2022-09-20T23:59:49.413Z,7.10
